createdAt,value
2018-09-12T06:37:51.217Z,23.60
2018-09-12T06:40:19.620Z,23.60
2018-09-12T06:42:48.098Z,23.90
2018-09-12T06:45:17.123Z,24.00
2018-09-12T06:47:45.582Z,24.30
2018-09-12T06:50:14.552Z,24.40
2018-09-12T06:52:43.188Z,24.20
2018-09-12T06:55:12.022Z,24.10
2018-09-12T06:57:40.554Z,24.00
2018-09-12T07:00:09.853Z,23.70
2018-09-12T07:02:38.269Z,23.30
2018-09-12T07:05:06.930Z,23.00
2018-09-12T07:07:35.545Z,22.80
2018-09-12T07:10:04.026Z,22.80
2018-09-12T07:12:32.463Z,22.70
2018-09-12T07:15:00.932Z,22.50
2018-09-12T07:17:29.545Z,22.40
2018-09-12T07:19:58.088Z,22.40
2018-09-12T07:22:26.646Z,22.30
2018-09-12T07:24:55.149Z,22.30
2018-09-12T07:27:23.645Z,22.30
2018-09-12T07:29:52.338Z,22.20
2018-09-12T07:32:20.837Z,22.20
2018-09-12T07:34:49.449Z,22.00
2018-09-12T07:37:18.681Z,22.10
2018-09-12T07:39:47.151Z,22.00
2018-09-12T07:42:15.656Z,22.00
2018-09-12T07:44:44.053Z,22.00
2018-09-12T07:47:12.529Z,22.10
2018-09-12T07:49:41.121Z,22.00
2018-09-12T07:52:09.729Z,22.00
2018-09-12T07:54:38.285Z,22.10
2018-09-12T07:57:06.708Z,22.10
2018-09-12T07:59:35.667Z,22.20
2018-09-12T08:02:04.794Z,22.40
2018-09-12T08:04:34.092Z,22.50
2018-09-12T08:07:02.634Z,22.60
2018-09-12T08:09:31.320Z,22.40
2018-09-12T08:11:59.755Z,22.40
2018-09-12T08:14:28.796Z,22.40
2018-09-12T08:16:57.402Z,22.50
2018-09-12T08:19:26.377Z,22.50
2018-09-12T08:21:54.858Z,22.50
2018-09-12T08:24:23.412Z,22.50
2018-09-12T08:26:51.871Z,22.60
2018-09-12T08:29:20.394Z,22.50
2018-09-12T08:31:49.107Z,22.50
2018-09-12T08:34:17.564Z,22.70
2018-09-12T08:36:46.134Z,22.60
2018-09-12T08:39:14.835Z,22.60
2018-09-12T08:41:43.481Z,22.70
2018-09-12T08:44:12.002Z,22.90
2018-09-12T08:46:40.461Z,23.00
2018-09-12T08:49:08.924Z,22.90
2018-09-12T08:51:37.397Z,23.00
2018-09-12T08:54:06.098Z,23.00
2018-09-12T08:56:34.624Z,23.00
2018-09-12T08:59:03.305Z,23.10
2018-09-12T09:01:31.813Z,23.10
2018-09-12T09:04:00.382Z,23.00
2018-09-12T09:06:29.625Z,22.90
2018-09-12T09:08:58.306Z,23.00
2018-09-12T09:11:27.361Z,23.10
2018-09-12T09:13:56.066Z,23.30
2018-09-12T09:16:24.617Z,23.40
2018-09-12T09:18:53.634Z,23.40
2018-09-12T09:21:22.305Z,23.50
2018-09-12T09:23:50.865Z,23.50
2018-09-12T09:26:19.287Z,23.50
2018-09-12T09:28:47.717Z,23.50
2018-09-12T09:31:16.128Z,23.60
2018-09-12T09:33:44.689Z,23.70
2018-09-12T09:36:13.380Z,23.60
2018-09-12T09:38:41.981Z,23.50
2018-09-12T09:41:10.651Z,23.50
2018-09-12T09:43:39.155Z,23.50
2018-09-12T09:46:07.967Z,23.50
2018-09-12T09:48:36.665Z,23.40
2018-09-12T09:51:05.732Z,23.30
2018-09-12T09:53:34.454Z,23.20
2018-09-12T09:56:03.658Z,23.20
2018-09-12T09:58:32.425Z,23.20
2018-09-12T10:01:06.126Z,23.10
2018-09-12T10:03:40.249Z,23.10
2018-09-12T10:06:14.500Z,23.10
2018-09-12T10:08:48.676Z,23.20
2018-09-12T10:11:17.121Z,23.30
2018-09-12T10:13:46.829Z,23.40
2018-09-12T10:16:15.460Z,23.40
2018-09-12T10:18:44.905Z,23.50
2018-09-12T10:21:13.524Z,23.60
2018-09-12T10:23:42.081Z,23.80
2018-09-12T10:26:10.565Z,24.10
2018-09-12T10:28:39.482Z,24.70
2018-09-12T10:31:07.903Z,25.00
2018-09-12T10:33:37.020Z,25.10
2018-09-12T10:36:06.280Z,24.80
2018-09-12T10:38:34.817Z,24.50
2018-09-12T10:41:03.611Z,24.20
2018-09-12T10:43:32.789Z,23.90
2018-09-12T10:46:01.217Z,23.70
2018-09-12T10:48:30.401Z,23.60
2018-09-12T10:50:59.421Z,23.60
2018-09-12T10:53:28.718Z,23.50
2018-09-12T10:55:57.281Z,23.50
2018-09-12T10:58:25.943Z,23.50
2018-09-12T11:00:54.473Z,23.40
2018-09-12T11:03:22.992Z,23.40
2018-09-12T11:05:51.585Z,23.40
2018-09-12T11:08:20.089Z,23.50
2018-09-12T11:10:48.509Z,23.40
2018-09-12T11:13:17.460Z,23.30
2018-09-12T11:15:46.056Z,23.30
2018-09-12T11:18:14.634Z,23.20
2018-09-12T11:20:43.332Z,23.20
2018-09-12T11:23:12.014Z,23.10
2018-09-12T11:25:40.595Z,22.90
2018-09-12T11:28:09.008Z,22.70
2018-09-12T11:30:37.616Z,22.30
2018-09-12T11:33:06.150Z,21.90
2018-09-12T11:35:34.704Z,21.70
2018-09-12T11:38:03.429Z,21.60
2018-09-12T11:40:32.133Z,21.70
2018-09-12T11:43:00.669Z,21.70
2018-09-12T11:45:29.149Z,21.80
2018-09-12T11:47:57.877Z,21.90
2018-09-12T11:50:26.397Z,21.90
2018-09-12T11:52:55.841Z,21.80
2018-09-12T11:55:24.450Z,22.00
2018-09-12T11:57:53.087Z,22.00
2018-09-12T12:00:21.845Z,22.00
2018-09-12T12:02:51.022Z,21.90
2018-09-12T12:05:19.448Z,21.90
2018-09-12T12:07:48.179Z,22.00
2018-09-12T12:10:17.145Z,21.90
2018-09-12T12:12:45.872Z,21.90
2018-09-12T12:15:14.883Z,21.80
2018-09-12T12:17:43.389Z,21.80
2018-09-12T12:20:12.129Z,21.90
2018-09-12T12:22:40.535Z,21.80
2018-09-12T12:25:09.090Z,21.80
2018-09-12T12:27:37.521Z,21.80
2018-09-12T12:30:06.185Z,21.70
2018-09-12T12:32:34.701Z,21.70
2018-09-12T12:35:03.224Z,21.70
2018-09-12T12:37:31.820Z,21.60
2018-09-12T12:40:00.460Z,21.60
2018-09-12T12:42:28.865Z,21.70
2018-09-12T12:44:57.899Z,21.50
2018-09-12T12:47:26.348Z,21.40
2018-09-12T12:49:54.809Z,21.40
2018-09-12T12:52:23.577Z,21.60
2018-09-12T12:54:52.170Z,21.60
2018-09-12T12:57:21.137Z,21.50
2018-09-12T12:59:49.765Z,21.30
2018-09-12T13:02:18.285Z,21.20
2018-09-12T13:04:53.396Z,21.00
2018-09-12T13:13:09.841Z,20.70
2018-09-12T13:15:38.436Z,20.60
2018-09-12T13:18:07.176Z,20.60
2018-09-12T13:20:35.790Z,20.70
2018-09-12T13:23:04.443Z,20.80
2018-09-12T13:25:32.894Z,20.80
2018-09-12T13:28:01.346Z,20.80
2018-09-12T13:30:29.898Z,20.80
2018-09-12T13:32:58.477Z,20.90
2018-09-12T13:35:27.231Z,20.90
2018-09-12T13:37:55.831Z,20.70
2018-09-12T13:40:24.564Z,20.40
2018-09-12T13:42:53.281Z,20.00
2018-09-12T13:45:22.112Z,19.90
2018-09-12T13:47:50.744Z,19.80
2018-09-12T13:50:19.147Z,19.80
2018-09-12T13:52:47.640Z,19.70
2018-09-12T13:55:17.670Z,19.60
2018-09-12T13:57:46.192Z,19.50
2018-09-12T14:00:14.762Z,19.60
2018-09-12T14:02:43.329Z,19.70
2018-09-12T14:05:12.969Z,19.60
2018-09-12T14:07:41.529Z,19.60
2018-09-12T14:10:09.958Z,19.60
2018-09-12T14:12:38.490Z,19.50
2018-09-12T14:15:07.026Z,19.50
2018-09-12T14:17:35.601Z,19.50
2018-09-12T14:20:04.313Z,19.40
2018-09-12T14:22:32.788Z,19.40
2018-09-12T14:25:01.343Z,19.40
2018-09-12T14:27:30.001Z,19.50
2018-09-12T14:29:58.625Z,19.50
2018-09-12T14:32:27.061Z,19.50
2018-09-12T14:34:55.473Z,19.70
2018-09-12T14:37:24.025Z,19.70
2018-09-12T14:39:52.697Z,19.80
2018-09-12T14:42:21.218Z,19.80
2018-09-12T14:44:49.768Z,19.80
2018-09-12T14:47:19.045Z,19.80
2018-09-12T14:49:47.480Z,19.70
2018-09-12T14:52:16.055Z,19.60
2018-09-12T14:54:44.641Z,19.60
2018-09-12T14:57:13.332Z,19.50
2018-09-12T14:59:41.892Z,19.50
2018-09-12T15:02:10.416Z,19.50
2018-09-12T15:04:39.445Z,19.50
2018-09-12T15:07:07.864Z,19.30
2018-09-12T15:09:37.205Z,19.30
2018-09-12T15:12:06.371Z,19.10
2018-09-12T15:14:34.857Z,19.00
2018-09-12T15:17:04.094Z,19.00
2018-09-12T15:19:32.608Z,19.00
2018-09-12T15:22:01.297Z,18.90
2018-09-12T15:24:29.973Z,18.90
2018-09-12T15:26:58.577Z,18.90
2018-09-12T15:29:27.099Z,18.90
2018-09-12T15:31:55.656Z,19.00
2018-09-12T15:34:24.253Z,19.10
2018-09-12T15:36:52.857Z,19.10
2018-09-12T15:39:21.577Z,19.20
2018-09-12T15:41:50.320Z,19.00
2018-09-12T15:44:18.734Z,19.00
2018-09-12T15:46:47.273Z,19.10
2018-09-12T15:49:15.749Z,19.10
2018-09-12T15:51:44.178Z,19.00
2018-09-12T15:54:12.607Z,19.00
2018-09-12T15:56:41.646Z,18.90
2018-09-12T15:59:10.066Z,19.00
2018-09-12T16:01:38.648Z,19.10
2018-09-12T16:04:07.353Z,19.20
2018-09-12T16:06:35.957Z,19.20
2018-09-12T16:09:06.545Z,19.20
2018-09-12T16:11:35.718Z,19.10
2018-09-12T16:14:04.433Z,19.00
2018-09-12T16:16:32.857Z,19.10
2018-09-12T16:19:01.293Z,19.00
2018-09-12T16:21:30.390Z,19.00
2018-09-12T16:23:58.992Z,18.90
2018-09-12T16:26:27.578Z,18.90
2018-09-12T16:28:55.991Z,18.90
2018-09-12T16:31:25.078Z,18.80
2018-09-12T16:33:54.337Z,18.70
2018-09-12T16:36:23.406Z,18.80
2018-09-12T16:38:52.037Z,18.80
2018-09-12T16:41:20.644Z,18.90
2018-09-12T16:43:49.268Z,18.80
2018-09-12T16:46:18.578Z,18.90
2018-09-12T16:48:47.189Z,18.90
2018-09-12T16:51:15.693Z,18.90
2018-09-12T16:53:44.258Z,18.90
2018-09-12T16:56:13.067Z,18.80
2018-09-12T16:58:41.730Z,18.70
2018-09-12T17:01:10.210Z,18.70
2018-09-12T17:03:38.741Z,18.70
2018-09-12T17:06:07.652Z,18.80
2018-09-12T17:08:36.413Z,18.90
2018-09-12T17:11:04.928Z,18.80
2018-09-12T17:13:33.545Z,18.60
2018-09-12T17:16:02.318Z,18.60
2018-09-12T17:18:31.427Z,18.70
2018-09-12T17:21:00.001Z,18.70
2018-09-12T17:23:28.466Z,18.50
2018-09-12T17:25:57.975Z,18.30
2018-09-12T17:28:26.992Z,18.20
2018-09-12T17:30:55.746Z,18.20
2018-09-12T17:33:24.469Z,18.20
2018-09-12T17:35:53.005Z,18.30
2018-09-12T17:38:22.088Z,18.30
2018-09-12T17:40:51.445Z,18.20
2018-09-12T17:43:20.012Z,18.10
2018-09-12T17:45:48.702Z,18.10
2018-09-12T17:48:17.154Z,18.00
2018-09-12T17:50:45.673Z,18.00
2018-09-12T17:53:14.186Z,18.00
2018-09-12T17:55:42.850Z,18.00
2018-09-12T17:58:11.450Z,18.00
2018-09-12T18:00:40.022Z,18.00
2018-09-12T18:03:08.640Z,17.90
2018-09-12T18:05:37.136Z,17.70
2018-09-12T18:08:05.758Z,17.70
2018-09-12T18:10:35.060Z,17.70
2018-09-12T18:13:04.143Z,17.70
2018-09-12T18:15:32.717Z,17.60
2018-09-12T18:18:01.539Z,17.60
2018-09-12T18:20:30.049Z,17.70
2018-09-12T18:22:58.610Z,17.70
2018-09-12T18:25:27.193Z,17.70
2018-09-12T18:27:55.828Z,17.60
2018-09-12T18:30:25.927Z,17.60
2018-09-12T18:32:54.481Z,17.60
2018-09-12T18:35:23.292Z,17.60
2018-09-12T18:37:51.822Z,17.60
2018-09-12T18:40:20.546Z,17.70
2018-09-12T18:42:49.267Z,17.70
2018-09-12T18:45:17.882Z,17.80
2018-09-12T18:47:46.501Z,17.70
2018-09-12T18:50:15.182Z,17.80
2018-09-12T18:52:43.970Z,17.80
2018-09-12T18:55:12.517Z,17.80
2018-09-12T18:57:41.059Z,17.80
2018-09-12T19:00:09.594Z,17.70
2018-09-12T19:02:38.970Z,17.70
2018-09-12T19:05:08.092Z,17.70
2018-09-12T19:07:36.619Z,17.70
2018-09-12T19:10:05.193Z,17.60
2018-09-12T19:12:34.575Z,17.70
2018-09-12T19:15:03.661Z,17.70
2018-09-12T19:17:32.174Z,17.70
2018-09-12T19:20:00.576Z,17.60
2018-09-12T19:22:29.125Z,17.60
2018-09-12T19:24:58.945Z,17.80
2018-09-12T19:27:28.257Z,17.80
2018-09-12T19:29:56.945Z,17.70
2018-09-12T19:32:25.686Z,17.50
2018-09-12T19:34:54.351Z,17.50
2018-09-12T19:37:23.144Z,17.50
2018-09-12T19:39:51.780Z,17.40
2018-09-12T19:42:20.289Z,17.20
2018-09-12T19:44:49.025Z,17.00
2018-09-12T19:47:18.022Z,17.00
2018-09-12T19:49:46.476Z,17.00
2018-09-12T19:52:15.098Z,16.80
2018-09-12T19:54:44.109Z,16.70
2018-09-12T19:57:12.844Z,16.80
2018-09-12T19:59:41.472Z,16.90
2018-09-12T20:02:10.065Z,16.90
2018-09-12T20:04:43.013Z,16.90
2018-09-12T20:07:12.620Z,16.90
2018-09-12T20:09:41.200Z,16.90
2018-09-12T20:12:09.947Z,16.90
2018-09-12T20:14:38.533Z,17.00
2018-09-12T20:17:07.256Z,17.00
2018-09-12T20:19:35.905Z,17.00
2018-09-12T20:22:04.392Z,17.00
2018-09-12T20:24:32.975Z,16.80
2018-09-12T20:27:01.401Z,16.90
2018-09-12T20:29:31.012Z,16.70
2018-09-12T20:31:59.488Z,16.70
2018-09-12T20:34:28.122Z,16.90
2018-09-12T20:36:57.625Z,17.00
2018-09-12T20:39:27.302Z,17.00
2018-09-12T20:41:55.844Z,17.10
2018-09-12T20:44:24.277Z,17.10
2018-09-12T20:46:53.373Z,17.10
2018-09-12T20:49:21.806Z,17.20
2018-09-12T20:51:50.342Z,17.30
2018-09-12T23:02:58.959Z,17.30
2018-09-12T23:05:27.397Z,16.80
2018-09-12T23:07:55.993Z,16.90
2018-09-12T23:10:24.537Z,16.90
2018-09-12T23:12:53.176Z,16.90
2018-09-12T23:15:21.589Z,16.90
2018-09-12T23:17:50.954Z,16.90
2018-09-12T23:20:19.540Z,16.70
2018-09-12T23:22:48.010Z,16.60
2018-09-12T23:25:16.533Z,16.60
2018-09-12T23:27:45.018Z,16.70
2018-09-12T23:30:13.518Z,16.70
2018-09-12T23:32:42.004Z,16.80
2018-09-12T23:35:10.834Z,16.70
2018-09-12T23:37:39.969Z,16.60
2018-09-12T23:40:08.429Z,16.60
2018-09-12T23:42:36.864Z,16.60
2018-09-12T23:45:05.661Z,16.60
2018-09-12T23:47:34.125Z,16.50
2018-09-12T23:50:02.620Z,16.50
2018-09-12T23:52:31.109Z,16.50
2018-09-12T23:55:00.218Z,16.60
2018-09-12T23:57:28.694Z,16.50
2018-09-12T23:59:57.072Z,16.50
